0S9

Jefferson County International Airport

Port Townsend, Washington, USA
METAR K0S9 240455Z AUTO 00000KT 1/4SM FG VV002 07/07 A2999 RMK AO2
Observed Flight Rules
Oct-24 @ 04:55 UTC (7 minutes ago) Instrument Flight Rules
Visibility Clouds Conditions
1/4 miles
  • Vertical visibility at 200' AGL
  • Fog
Temperatures Readings
Current 7°C / 45°F
Dewpoint 7°C / 45°F
Humidity 100%
Altimeter 29.99" Hg
Pressure 1016 hPa
Elevation 33
METAR K0S9 240455Z AUTO 00000KT 1/4SM FG VV002 07/07 A2999 RMK AO2
Observed Flight Rules
Oct-24 @ 04:55 UTC
(7 minutes ago)
LIFR
Clouds
  • Vertical visibility at 200' AGL
Conditions
  • Fog
Temperature Dewpoint
7°C / 45°F 7°C / 45°F
Humidity Altimeter Pressure
100% 29.99" Hg 1016 hPa